• Join FlightAware (Why Join?)
  • Login
  • US Flag 
05:51AM EDT


 

Airport Tracker/Info


-or-


 

Live Flight TrackerFlight Track Log ✈ N6GD ✈ 24-Jul-2014 ✈ KRKD - KPIE

Flight Track Log - Related Links

Times and Time Zones

All times are in EDT time to prevent confusion due to time zone crossing. See the N6GD flight status page for this flight to view local times or setup timezone preferences in your user account.

Time Position Orientation Groundspeed Altitude Reporting Facility
EDT Latitude Longitude Course Direction KTS MPH feet Rate Location/Type
07:00PM 43.9589 -69.1211 229° Southwest 240 276 5,000  Level Boston Center
07:01PM 43.9064 -69.2211 234° Southwest 260 299 8,100 2,880 Climbing Boston Center
07:02PM 43.8597 -69.3078 233° Southwest 274 315 11,100 2,700 Climbing Boston Center
07:03PM 43.8069 -69.4075 234° Southwest 300 345 13,800 2,340 Climbing Boston Center
07:04PM 43.6882 -69.7333 180° South  Level FlightAware Approximate
07:04PM 43.7547 -69.5039 233° Southwest 312 359 16,000  Level Boston Center
07:05PM 43.6964 -69.6103 233° Southwest 321 369 18,500 1,980 Climbing Boston Center
07:06PM 43.6492 -69.6997 234° Southwest 324 373 20,200 1,740 Climbing Boston Center
07:07PM 43.5925 -69.8047 233° Southwest 336 387 22,100 1,920 Climbing Boston Center
07:08PM 43.5242 -69.9317 233° Southwest 341 392 24,200 1,920 Climbing Boston Center
07:09PM 43.4639 -70.0381 232° Southwest 349 402 26,200 2,280 Climbing Boston Center
07:10PM 43.4081 -70.1431 234° Southwest 338 389 28,900 2,400 Climbing Boston Center
07:11PM 43.3606 -70.2317 234° Southwest 322 371 31,200 2,100 Climbing Boston Center
07:12PM 43.3003 -70.3375 232° Southwest 299 344 33,300 1,320 Climbing Boston Center
07:13PM 43.2506 -70.4278 233° Southwest 299 344 34,000 480 Climbing Boston Center
07:14PM 43.1939 -70.5294 233° Southwest 331 381 34,400 780 Climbing Boston Center
07:15PM 43.1367 -70.6325 233° Southwest 340 391 35,600 720 Climbing Boston Center
07:16PM 43.0786 -70.7350 232° Southwest 340 391 36,000 240 Climbing Boston Center
07:17PM 43.0164 -70.8450 232° Southwest 364 419 36,100  Climbing Boston Center
07:18PM 42.9417 -70.9772 232° Southwest 369 425 36,100  Level Boston Center
07:19PM 42.8797 -71.0872 232° Southwest 369 425 36,200 480 Climbing Boston Center
07:20PM 42.8158 -71.1972 232° Southwest 371 427 37,200 840 Climbing Boston Center
07:21PM 42.7539 -71.3047 232° Southwest 368 423 38,000 360 Climbing Boston Center
07:22PM 42.6900 -71.4103 231° Southwest 366 421 38,000  Level Boston Center
07:23PM 42.6225 -71.5164 229° Southwest 368 423 38,000  Level Boston Center
07:24PM 42.5478 -71.6342 229° Southwest 372 428 38,000  Level Boston Center
07:25PM 42.4828 -71.7381 230° Southwest 365 420 38,000  Level Boston Center
07:26PM 42.4158 -71.8411 229° Southwest 365 420 38,000  Level Boston Center
07:28PM 42.3497 -71.9464 230° Southwest 365 420 38,000  Level Boston Center
07:29PM 42.2822 -72.0519 229° Southwest 367 422 38,000  Level Boston Center
07:30PM 42.2006 -72.1797 229° Southwest 371 427 38,000  Level Boston Center
07:31PM 42.1319 -72.2858 229° Southwest 374 430 38,000  Level Boston Center
07:32PM 42.0628 -72.3919 229° Southwest 375 432 38,000  Level Boston Center
07:33PM 41.9944 -72.4983 229° Southwest 376 433 38,000  Level Boston Center
07:34PM 41.9256 -72.6053 229° Southwest 376 433 38,000  Level Boston Center
07:35PM 41.8561 -72.7119 229° Southwest 376 433 38,000  Level Boston Center
07:36PM 41.7861 -72.8183 229° Southwest 379 436 38,000  Level Boston Center
07:37PM 41.7164 -72.9250 229° Southwest 379 436 38,000  Level Boston Center
07:38PM 41.6325 -73.0522 229° Southwest 379 436 38,000  Level Boston Center
07:39PM 41.5614 -73.1583 228° Southwest 380 437 38,000  Level Boston Center
07:40PM 41.4908 -73.2658 229° Southwest 380 437 38,000  Level Boston Center
07:41PM 41.4214 -73.3714 229° Southwest 380 437 38,000  Level Boston Center
07:42PM 41.3506 -73.4756 228° Southwest 380 437 38,000  Level Boston Center
07:43PM 41.2800 -73.5794 228° Southwest 380 437 38,000  Level Boston Center
07:44PM 41.2161 -73.6881 232° Southwest 380 437 38,000  Level Boston Center
07:46PM 41.0875 -73.9056 232° Southwest 377 434 38,000  Level Washington Center
07:47PM 41.0483 -73.9697 231° Southwest 375 432 38,000  Level New York Center
07:48PM 40.9853 -74.0772 232° Southwest 374 430 38,000  Level New York Center
07:49PM 40.9178 -74.1889 231° Southwest 372 428 38,000  Level New York Center
07:50PM 40.8547 -74.2942 232° Southwest 370 426 38,000  Level New York Center
07:51PM 40.7789 -74.4178 231° Southwest 365 420 38,000  Level New York Center
07:52PM 40.7178 -74.5217 232° Southwest 362 417 38,000  Level New York Center
07:53PM 40.6542 -74.6239 231° Southwest 362 417 38,000  Level New York Center
07:54PM 40.5922 -74.7256 231° Southwest 360 414 38,000  Level New York Center
07:55PM 40.5244 -74.8233 228° Southwest 362 417 38,000  Level New York Center
07:56PM 40.4414 -74.9400 227° Southwest 364 419 38,000  Level New York Center
07:57PM 40.3719 -75.0375 227° Southwest 365 420 38,000  Level New York Center
07:58PM 40.2978 -75.1422 227° Southwest 365 420 38,000  Level New York Center
07:59PM 40.2247 -75.2461 227° Southwest 364 419 38,000  Level New York Center
08:00PM 40.1686 -75.3253 227° Southwest 361 415 38,000  Level New York Center
08:01PM 40.0861 -75.4400 227° Southwest 362 417 38,000  Level New York Center
08:02PM 40.0172 -75.5353 227° Southwest 364 419 38,000  Level New York Center
08:03PM 39.9475 -75.6308 226° Southwest 365 420 38,000  Level New York Center
08:04PM 39.8806 -75.7292 228° Southwest 366 421 38,000  Level New York Center
08:05PM 39.8058 -75.8494 231° Southwest 362 417 38,000  Level New York Center
08:06PM 39.7419 -75.9517 231° Southwest 360 414 38,000  Level New York Center
08:07PM 39.6739 -76.0597 231° Southwest 360 414 38,000  Level New York Center
08:08PM 39.6153 -76.1497 230° Southwest 360 414 38,000  Level New York Center
08:09PM 39.5519 -76.2489 230° Southwest 356 410 38,000  Level New York Center
08:10PM 39.4758 -76.3672 230° Southwest 356 410 38,000  Level New York Center
08:11PM 39.4131 -76.4647 230° Southwest 355 409 38,000  Level New York Center
08:12PM 39.3508 -76.5639 231° Southwest 355 409 38,000  Level New York Center
08:14PM 39.2892 -76.6611 231° Southwest 353 406 38,000  Level New York Center
08:15PM 39.2261 -76.7606 231° Southwest 356 410 38,000  Level New York Center
08:16PM 39.1633 -76.8572 230° Southwest 355 409 38,000  Level New York Center
08:17PM 39.0867 -76.9761 230° Southwest 358 412 38,000  Level New York Center
08:18PM 39.0181 -77.0689 226° Southwest 358 412 38,000  Level New York Center
08:19PM 38.9097 -77.1864 220° Southwest 360 414 38,000  Level Washington Center
08:20PM 38.8328 -77.2711 221° Southwest 361 415 38,000  Level Washington Center
08:21PM 38.7556 -77.3550 220° Southwest 360 414 38,000  Level Washington Center
08:22PM 38.6769 -77.4381 220° Southwest 361 415 38,000  Level Washington Center
08:23PM 38.5989 -77.5242 221° Southwest 363 418 38,000  Level Washington Center
08:24PM 38.5206 -77.6092 220° Southwest 363 418 38,000  Level Washington Center
08:25PM 38.4433 -77.6933 220° Southwest 363 418 38,000  Level Washington Center
08:26PM 38.3661 -77.7769 220° Southwest 363 418 38,000  Level Washington Center
08:27PM 38.2722 -77.8769 220° Southwest 364 419 38,000  Level Washington Center
08:28PM 38.1944 -77.9606 220° Southwest 366 421 38,000  Level Washington Center
08:29PM 38.1169 -78.0439 220° Southwest 366 421 38,000  Level Washington Center
08:30PM 38.0386 -78.1267 220° Southwest 366 421 38,000  Level Washington Center
08:32PM 37.9539 -78.2106 218° Southwest 366 421 38,000  Level Washington Center
08:33PM 37.8708 -78.2897 217° Southwest 369 425 38,000  Level Washington Center
08:34PM 37.7886 -78.3675 217° Southwest 369 425 38,000  Level Washington Center
08:35PM 37.6878 -78.4633 217° Southwest 373 429 38,000  Level Washington Center
08:36PM 37.6047 -78.5414 217° Southwest 374 430 38,000  Level Washington Center
08:37PM 37.5208 -78.6203 217° Southwest 374 430 38,000  Level Washington Center
08:38PM 37.4367 -78.6992 217° Southwest 374 430 38,000  Level Washington Center
08:39PM 37.3539 -78.7781 217° Southwest 374 430 38,000  Level Washington Center
08:40PM 37.2686 -78.8564 216° Southwest 375 432 38,000  Level Washington Center
08:41PM 37.1667 -78.9511 217° Southwest 376 433 38,000  Level Washington Center
08:42PM 37.0817 -79.0306 217° Southwest 377 434 38,000  Level Washington Center
08:43PM 36.9961 -79.1097 216° Southwest 378 435 38,000  Level Washington Center
08:44PM 36.9111 -79.1894 217° Southwest 379 436 38,000  Level Washington Center
08:45PM 36.8244 -79.2675 216° Southwest 380 437 38,000  Level Washington Center
08:46PM 36.7397 -79.3467 217° Southwest 380 437 38,000  Level Washington Center
08:47PM 36.6356 -79.4428 217° Southwest 384 442 38,000  Level Washington Center
08:48PM 36.5486 -79.5231 217° Southwest 389 448 38,000  Level Washington Center
08:49PM 36.4611 -79.6019 216° Southwest 388 447 38,000  Level Washington Center
08:50PM 36.3681 -79.6858 216° Southwest 388 447 38,000  Level Washington Center
08:51PM 36.2800 -79.7653 216° Southwest 390 449 38,000  Level Washington Center
08:52PM 36.2050 -79.8264 213° Southwest 396 456 38,000  Level Atlanta Center
08:53PM 36.1158 -79.9056 216° Southwest 396 456 38,000  Level Atlanta Center
08:54PM 36.0267 -79.9822 215° Southwest 396 456 38,000  Level Atlanta Center
08:55PM 35.9219 -80.0361 203° Southwest 396 456 38,000  Level Atlanta Center
08:56PM 35.8175 -80.0872 202° Southwest 401 461 38,000  Level Atlanta Center
08:57PM 35.7125 -80.1383 202° Southwest 406 467 38,000  Level Atlanta Center
08:58PM 35.6183 -80.1889 204° Southwest 411 473 38,000  Level Atlanta Center
08:59PM 35.5136 -80.2422 203° Southwest 411 473 38,000  Level Atlanta Center
09:00PM 35.4108 -80.2956 203° Southwest 411 473 38,000  Level Atlanta Center
09:01PM 35.3039 -80.3486 202° Southwest 411 473 38,000  Level Atlanta Center
09:02PM 35.1950 -80.4019 202° Southwest 411 473 38,000  Level Atlanta Center
09:03PM 35.0586 -80.4683 202° Southwest 408 470 38,000  Level Jacksonville Center
09:04PM 34.9531 -80.5219 203° Southwest 408 470 38,000  Level Jacksonville Center
09:05PM 34.8497 -80.5728 202° Southwest 408 470 38,000  Level Jacksonville Center
09:06PM 34.7425 -80.6289 203° Southwest 402 463 38,000  Level Jacksonville Center
09:07PM 34.6389 -80.6744 200° South 397 457 38,000  Level Jacksonville Center
09:08PM 34.5356 -80.7300 204° Southwest 426 490 38,000  Level Jacksonville Center
09:09PM 34.4361 -80.7728 200° South 419 482 38,000  Level Jacksonville Center
09:10PM 34.3308 -80.8308 204° Southwest 406 467 38,000  Level Jacksonville Center
09:11PM 34.2314 -80.8783 202° Southwest 406 467 38,000  Level Jacksonville Center
09:12PM 34.1258 -80.9283 201° Southwest 406 467 38,000  Level Jacksonville Center
09:13PM 34.0222 -80.9783 202° Southwest 401 461 38,000  Level Jacksonville Center
09:14PM 33.9061 -81.0308 201° Southwest 401 461 38,000  Level Jacksonville Center
09:15PM 33.7983 -81.0781 200° South 411 473 38,000  Level Jacksonville Center
09:16PM 33.7094 -81.1300 206° Southwest 411 473 38,000  Level Jacksonville Center
09:17PM 33.6017 -81.1844 203° Southwest 416 479 38,000  Level Jacksonville Center
09:18PM 33.4958 -81.2364 202° Southwest 416 479 38,000  Level Jacksonville Center
09:19PM 33.3881 -81.2881 202° Southwest 416 479 38,000  Level Jacksonville Center
09:20PM 33.2800 -81.3422 203° Southwest 416 479 38,000  Level Jacksonville Center
09:21PM 33.1722 -81.3936 202° Southwest 421 484 38,000  Level Jacksonville Center
09:22PM 33.0642 -81.4475 203° Southwest 421 484 38,000  Level Jacksonville Center
09:23PM 32.9564 -81.4986 202° Southwest 421 484 38,000  Level Jacksonville Center
09:24PM 32.8483 -81.5522 203° Southwest 421 484 38,000  Level Jacksonville Center
09:25PM 32.7403 -81.6058 203° Southwest 421 484 38,000  Level Jacksonville Center
09:26PM 32.6219 -81.6617 202° Southwest 421 484 38,000  Level Jacksonville Center
09:27PM 32.5242 -81.7075 202° Southwest 421 484 38,000  Level Jacksonville Center
09:28PM 32.4017 -81.7656 202° Southwest 421 484 38,000  Level Jacksonville Center
09:29PM 32.3061 -81.8136 203° Southwest 421 484 38,000  Level Jacksonville Center
09:30PM 32.1811 -81.8592 197° South 427 491 38,000  Level Jacksonville Center
09:31PM 32.0622 -81.8825 189° South 433 498 38,000  Level Jacksonville Center
09:32PM 31.9561 -81.9058 191° South 433 498 38,000  Level Jacksonville Center
09:33PM 31.8267 -81.9292 189° South 427 491 38,000  Level Jacksonville Center
09:34PM 31.7206 -81.9522 190° South 433 498 38,000  Level Jacksonville Center
09:35PM 31.5911 -81.9781 190° South 428 493 38,000  Level Jacksonville Center
09:36PM 31.4764 -81.9986 189° South 428 493 38,000  Level Jacksonville Center
09:37PM 31.3681 -82.0192 189° South 433 498 38,000 -60 Level Jacksonville Center
09:38PM 31.2533 -82.0444 191° South 428 493 37,900  Descending Jacksonville Center
09:39PM 31.1367 -82.0650 189° South 428 493 38,000  Climbing Jacksonville Center
09:40PM 31.0219 -82.0878 190° South 428 493 38,000  Level Jacksonville Center
09:41PM 30.9072 -82.1106 190° South 428 493 38,000  Level Jacksonville Center
09:42PM 30.7758 -82.1358 189° South 428 493 38,000  Level Jacksonville Center
09:43PM 30.6611 -82.1583 190° South 433 498 38,000  Level Jacksonville Center
09:44PM 30.5464 -82.1739 187° South 428 493 38,000  Level Jacksonville Center
09:45PM 30.4275 -82.1964 189° South 428 493 38,000  Level Jacksonville Center
09:46PM 30.3128 -82.2189 190° South 428 493 38,000 -120 Level Jacksonville Center
09:47PM 30.1939 -82.2414 189° South 428 493 37,800 -1,140 Descending Jacksonville Center
09:48PM 30.0750 -82.2636 189° South 428 493 35,800 -2,100 Descending Jacksonville Center
09:49PM 29.9519 -82.2933 192° South 435 501 33,600 -2,340 Descending Jacksonville Center
09:50PM 29.8308 -82.3131 188° South 440 506 31,200 -2,220 Descending Jacksonville Center
09:51PM 29.7225 -82.3306 188° South 445 512 29,200 -2,220 Descending Jacksonville Center
09:52PM 29.5994 -82.3503 188° South 445 512 26,800 -1,620 Descending Jacksonville Center
09:53PM 29.4761 -82.3464 178° South 445 512 26,000 -1,320 Descending Jacksonville Center
09:54PM 29.3572 -82.3303 173° South 440 506 24,200 -2,340 Descending Jacksonville Center
09:55PM 29.2403 -82.3142 173° South 440 506 21,400 -2,760 Descending Jacksonville Center
09:56PM 29.1317 -82.3031 175° South 424 488 18,700 -2,520 Descending Jacksonville Center
09:57PM 29.0250 -82.2917 175° South 405 466 16,400 -2,220 Descending Jacksonville Center
09:58PM 28.9103 -82.2783 174° South 394 453 14,300 -1,320 Descending Jacksonville Center
10:00PM 28.7111 -82.2564 174° South 296 341 12,100 -1,020 Descending Miami Center
10:01PM 28.6333 -82.2833 197° South 279 321 11,000 -840 Descending Tampa TRACON
10:03PM 28.5333 -82.3500 210° Southwest 281 323 10,100 -480 Descending Tampa TRACON
10:04PM 28.5000 -82.4000 233° Southwest 281 323 10,000 -60 Descending Tampa TRACON
10:05PM 28.4333 -82.4500 213° Southwest 282 325 10,000 -840 Level Tampa TRACON
10:05PM 28.3833 -82.5000 221° Southwest 277 319 8,500 -1,800 Descending Tampa TRACON
10:07PM 28.3167 -82.5500 213° Southwest 270 311 6,500 -1,860 Descending Tampa TRACON
10:07PM 28.2500 -82.5833 204° Southwest 264 304 4,900 -1,560 Descending Tampa TRACON
10:09PM 28.1833 -82.6167 204° Southwest 253 291 3,400 -1,020 Descending Tampa TRACON
10:09PM 28.1167 -82.6333 192° South 232 267 2,900 -900 Descending Tampa TRACON
10:10PM 28.0667 -82.6667 210° Southwest 220 253 1,700 -720 Descending Tampa TRACON
10:11PM 28.0167 -82.6833 196° South 165 190 1,500 -420 Descending Tampa TRACON
10:13PM 27.9833 -82.7000 204° Southwest 120 138 900 -600 Descending Tampa TRACON
10:14PM 27.9333 -82.7000 180° South 130 150 300 -600 Descending Tampa TRACON